Latest Weather Observations for Sellicks Hill

IDS60901

Issued at 3:31 pm CST Wednesday 26 April 2017 (issued every 10 minutes, with the page automatically refreshed every 10 minutes)

About weather observations | Map of Adelaide area stations | Latest observations for Adelaide area | Other Formats
Station Details ID: 023886 Name: MOUNT TERRIBLE RADAR Lat: -35.33 Lon: 138.50 Height: 385.7 m
Data from the previous 72 hours. | See also: Recent months for locations in South Australia
Date/Time
CST
Temp
°C
App
Temp
°C
Dew
Point
°C
Rel
Hum
%
Delta-T
°C
Wind Press
QNH
hPa
Press
MSL
hPa
Rain since
9am
mm
Dir  Spd
km/h
Gust
km/h
Spd
kts
Gust
kts
26/03:00pm - - - - - S 26 37 14 20 - - -
26/02:48pm - - - - - S 20 44 11 24 - - -
26/02:30pm - - - - - S 17 30 9 16 - - -
26/02:00pm - - - - - SSW 17 33 9 18 - - -
26/01:34pm - - - - - S 26 46 14 25 - - -
26/01:30pm - - - - - S 28 46 15 25 - - -
26/01:29pm - - - - - S 28 46 15 25 - - -
26/01:00pm - - - - - SSW 17 39 9 21 - - -
26/12:30pm - - - - - S 17 30 9 16 - - -
26/12:00pm - - - - - S 22 39 12 21 - - -
26/11:30am - - - - - S 22 43 12 23 - - -
26/11:00am - - - - - SSW 15 32 8 17 - - -
26/10:30am - - - - - S 26 54 14 29 - - -
26/10:10am - - - - - S 28 56 15 30 - - -
26/10:00am - - - - - S 22 46 12 25 - - -
26/09:30am - - - - - S 24 44 13 24 - - -
26/09:00am - - - - - SSW 15 28 8 15 - - -
26/08:30am - - - - - SSW 17 32 9 17 - - -
26/08:00am - - - - - SSW 13 26 7 14 - - -
26/07:30am - - - - - SSW 13 32 7 17 - - -
26/07:00am - - - - - S 17 35 9 19 - - -
26/06:30am - - - - - SSW 15 33 8 18 - - -
26/06:00am - - - - - SSW 13 28 7 15 - - -
26/05:30am - - - - - SSW 11 22 6 12 - - -
26/05:00am - - - - - SSW 17 32 9 17 - - -
26/04:30am - - - - - SSW 15 30 8 16 - - -
26/04:00am - - - - - SW 19 35 10 19 - - -
26/03:30am - - - - - SW 15 28 8 15 - - -
26/03:00am - - - - - SSW 17 32 9 17 - - -
26/02:30am - - - - - SW 19 33 10 18 - - -
26/02:00am - - - - - SW 20 37 11 20 - - -
26/01:30am - - - - - SW 20 39 11 21 - - -
26/01:00am - - - - - WSW 9 24 5 13 - - -
26/12:30am - - - - - SW 17 33 9 18 - - -
26/12:00am - - - - - WSW 11 33 6 18 - - -
 
Date/Time
CST
Temp
°C
App
Temp
°C
Dew
Point
°C
Rel
Hum
%
Delta-T
°C
Wind Press
QNH
hPa
Press
MSL
hPa
Rain since
9am
mm
Dir  Spd
km/h
Gust
km/h
Spd
kts
Gust
kts
25/11:30pm - - - - - SW 15 26 8 14 - - -
25/11:00pm - - - - - SW 17 35 9 19 - - -
25/10:30pm - - - - - SW 19 39 10 21 - - -
25/10:00pm - - - - - W 13 24 7 13 - - -
25/09:30pm - - - - - WNW 17 32 9 17 - - -
25/09:00pm - - - - - W 17 33 9 18 - - -
25/08:30pm - - - - - WNW 13 32 7 17 - - -
25/08:00pm - - - - - WNW 15 32 8 17 - - -
25/07:30pm - - - - - WNW 15 30 8 16 - - -
25/07:00pm - - - - - WNW 19 37 10 20 - - -
25/06:30pm - - - - - WNW 17 30 9 16 - - -
25/06:00pm - - - - - W 15 33 8 18 - - -
25/05:30pm - - - - - WNW 7 15 4 8 - - -
25/05:00pm - - - - - WSW 11 20 6 11 - - -
25/04:30pm - - - - - WNW 7 20 4 11 - - -
25/04:00pm - - - - - WNW 7 19 4 10 - - -
25/03:30pm - - - - - WNW 13 28 7 15 - - -
25/03:00pm - - - - - WNW 15 33 8 18 - - -
25/02:30pm - - - - - WNW 11 24 6 13 - - -
25/02:00pm - - - - - WNW 11 20 6 11 - - -
25/01:30pm - - - - - NW 9 22 5 12 - - -
25/01:00pm - - - - - WNW 9 19 5 10 - - -
25/12:30pm - - - - - WNW 9 20 5 11 - - -
25/12:00pm - - - - - WNW 9 22 5 12 - - -
25/11:30am - - - - - WNW 11 20 6 11 - - -
25/11:00am - - - - - WNW 11 24 6 13 - - -
25/10:30am - - - - - W 11 24 6 13 - - -
25/10:00am - - - - - W 9 26 5 14 - - -
25/09:30am - - - - - W 9 20 5 11 - - -
25/09:00am - - - - - W 6 11 3 6 - - -
25/08:30am - - - - - W 7 13 4 7 - - -
25/08:00am - - - - - W 7 15 4 8 - - -
25/07:30am - - - - - WSW 7 15 4 8 - - -
25/07:00am - - - - - WSW 7 15 4 8 - - -
25/06:30am - - - - - WSW 7 17 4 9 - - -
25/06:00am - - - - - W 7 15 4 8 - - -
25/05:30am - - - - - W 6 13 3 7 - - -
25/05:00am - - - - - WNW 7 15 4 8 - - -
25/04:30am - - - - - WNW 7 19 4 10 - - -
25/04:00am - - - - - WNW 7 19 4 10 - - -
25/03:30am - - - - - WNW 13 24 7 13 - - -
25/03:00am - - - - - NW 7 17 4 9 - - -
25/02:30am - - - - - WNW 6 13 3 7 - - -
25/02:00am - - - - - WNW 7 20 4 11 - - -
25/01:30am - - - - - W 7 20 4 11 - - -
25/01:00am - - - - - W 9 20 5 11 - - -
25/12:30am - - - - - W 7 15 4 8 - - -
25/12:00am - - - - - W 9 24 5 13 - - -
 
Date/Time
CST
Temp
°C
App
Temp
°C
Dew
Point
°C
Rel
Hum
%
Delta-T
°C
Wind Press
QNH
hPa
Press
MSL
hPa
Rain since
9am
mm
Dir  Spd
km/h
Gust
km/h
Spd
kts
Gust
kts
24/11:30pm - - - - - W 11 22 6 12 - - -
24/11:00pm - - - - - W 9 20 5 11 - - -
24/10:30pm - - - - - NW 7 17 4 9 - - -
24/10:00pm - - - - - NW 7 19 4 10 - - -
24/09:30pm - - - - - NW 6 13 3 7 - - -
24/09:00pm - - - - - NW 6 13 3 7 - - -
24/08:30pm - - - - - NW 7 13 4 7 - - -
24/08:00pm - - - - - NW 6 15 3 8 - - -
24/07:30pm - - - - - WNW 7 15 4 8 - - -
24/07:00pm - - - - - NW 9 19 5 10 - - -
24/06:30pm - - - - - NW 7 13 4 7 - - -
24/06:00pm - - - - - NNW 11 22 6 12 - - -
24/05:30pm - - - - - NW 9 19 5 10 - - -
24/05:00pm - - - - - NW 11 22 6 12 - - -
24/04:30pm - - - - - NW 11 17 6 9 - - -
24/04:00pm - - - - - NW 15 28 8 15 - - -
24/03:30pm - - - - - NNW 15 30 8 16 - - -
24/03:00pm - - - - - NNW 15 26 8 14 - - -
24/02:30pm - - - - - NNW 13 22 7 12 - - -
24/02:00pm - - - - - NNW 9 19 5 10 - - -
24/01:30pm - - - - - NNW 9 17 5 9 - - -
24/01:00pm - - - - - NNW 9 17 5 9 - - -
24/12:30pm - - - - - NNW 7 13 4 7 - - -
24/12:00pm - - - - - NNW 7 15 4 8 - - -
24/11:30am - - - - - NNW 6 9 3 5 - - -
24/11:00am - - - - - NNW 7 13 4 7 - - -
24/10:30am - - - - - N 4 9 2 5 - - -
24/10:00am - - - - - NNE 4 7 2 4 - - -
24/09:30am - - - - - ESE 4 4 2 2 - - -
24/09:00am - - - - - SE 7 9 4 5 - - -
24/08:30am - - - - - ESE 7 11 4 6 - - -
24/08:00am - - - - - SE 11 13 6 7 - - -
24/07:30am - - - - - ESE 13 19 7 10 - - -
24/07:00am - - - - - SE 17 22 9 12 - - -
24/06:30am - - - - - ESE 19 26 10 14 - - -
24/06:00am - - - - - SE 20 26 11 14 - - -
24/05:30am - - - - - ESE 15 19 8 10 - - -
24/05:00am - - - - - SE 19 22 10 12 - - -
24/04:30am - - - - - SE 19 22 10 12 - - -
24/04:00am - - - - - ESE 19 24 10 13 - - -
24/03:30am - - - - - ESE 15 19 8 10 - - -
24/03:00am - - - - - ESE 17 22 9 12 - - -
24/02:30am - - - - - ESE 17 24 9 13 - - -
24/02:00am - - - - - ESE 19 24 10 13 - - -
24/01:30am - - - - - ENE 17 26 9 14 - - -
24/01:00am - - - - - ENE 19 24 10 13 - - -
24/12:30am - - - - - ENE 20 32 11 17 - - -
24/12:00am - - - - - E 20 26 11 14 - - -
 
Date/Time
CST
Temp
°C
App
Temp
°C
Dew
Point
°C
Rel
Hum
%
Delta-T
°C
Wind Press
QNH
hPa
Press
MSL
hPa
Rain since
9am
mm
Dir  Spd
km/h
Gust
km/h
Spd
kts
Gust
kts
23/11:30pm - - - - - ESE 19 28 10 15 - - -
23/11:00pm - - - - - ESE 17 26 9 14 - - -
23/10:30pm - - - - - ESE 19 26 10 14 - - -
23/10:00pm - - - - - ESE 19 24 10 13 - - -
23/09:30pm - - - - - SE 20 26 11 14 - - -
23/09:00pm - - - - - SE 20 26 11 14 - - -
23/08:30pm - - - - - SE 22 26 12 14 - - -
23/08:00pm - - - - - SE 19 22 10 12 - - -
23/07:30pm - - - - - SE 19 20 10 11 - - -
23/07:00pm - - - - - SE 17 20 9 11 - - -
23/06:30pm - - - - - SSE 17 19 9 10 - - -
23/06:00pm - - - - - SE 17 20 9 11 - - -
23/05:30pm - - - - - SSE 17 20 9 11 - - -
23/05:00pm - - - - - SE 17 20 9 11 - - -
23/04:30pm - - - - - ESE 13 19 7 10 - - -
23/04:00pm - - - - - ESE 11 17 6 9 - - -

Latest Capital City Observations: Canberra | Sydney | Melbourne | Brisbane | Adelaide | Perth | Hobart | Darwin

Other Formats:

Comma delimited format used in spreadsheet applications
http://www.bom.gov.au/fwo/IDS60901/IDS60901.95679.axf

JavaScript Object Notation format (JSON) in row-major order
http://www.bom.gov.au/fwo/IDS60901/IDS60901.95679.json